Terminal Aerodrome Forecast
Issued by NWS

Current Version | Previous Version | Text Only | Print | Product List | Glossary On
Versions: 1 2 3 4 5 6 7 8 9 10 11 12 13 14 15 16 17 18 19 20 21 22 23 24 25 26 27 28 29 30 31 32 33 34 35 36 37 38 39 40 41
098
FTUS41 KGYX 031120
TAFMHT
TAF
KMHT 031120Z 0312/0412 17004KT 6SM -RA BR BKN025 OVC050
     FM031600 10004KT P6SM BKN025 OVC050
     FM040000 VRB03KT P6SM BKN050=

USA.gov is the U.S. government's official web portal to all federal, state and local government web resources and services.